createdAt,value
2023-04-24T00:00:06.433Z,2.43
2023-04-24T00:02:35.318Z,2.13
2023-04-24T00:05:03.970Z,2.50
2023-04-24T00:07:33.484Z,2.10
2023-04-24T00:10:01.511Z,2.20
2023-04-24T00:12:29.415Z,2.20
2023-04-24T00:14:57.310Z,2.87
2023-04-24T00:17:25.292Z,2.77
2023-04-24T00:19:59.300Z,3.30
2023-04-24T00:22:27.542Z,3.60
2023-04-24T00:24:57.268Z,3.23
2023-04-24T00:27:25.326Z,3.87
2023-04-24T00:29:53.529Z,3.07
2023-04-24T00:32:21.488Z,3.27
2023-04-24T00:34:49.466Z,2.70
2023-04-24T00:37:17.553Z,3.13
2023-04-24T00:39:45.660Z,3.83
2023-04-24T00:42:15.190Z,3.67
2023-04-24T00:44:43.286Z,4.10
2023-04-24T00:47:11.745Z,3.50
2023-04-24T00:49:39.628Z,3.63
2023-04-24T00:52:09.937Z,3.37
2023-04-24T00:54:37.931Z,3.90
2023-04-24T00:57:06.222Z,3.53
2023-04-24T00:59:35.515Z,4.10
2023-04-24T01:02:03.456Z,4.00
2023-04-24T01:04:31.548Z,3.43
2023-04-24T01:06:59.648Z,3.93
2023-04-24T01:09:27.604Z,3.73
2023-04-24T01:11:55.547Z,3.83
2023-04-24T01:14:23.524Z,3.43
2023-04-24T01:16:52.794Z,3.73
2023-04-24T01:19:21.310Z,3.93
2023-04-24T01:21:49.820Z,3.50
2023-04-24T01:24:20.015Z,3.93
2023-04-24T01:26:48.111Z,3.50
2023-04-24T01:29:16.096Z,3.57
2023-04-24T01:31:44.188Z,3.50
2023-04-24T01:34:12.520Z,3.40
2023-04-24T01:36:40.499Z,3.20
2023-04-24T01:39:08.641Z,3.60
2023-04-24T01:41:38.050Z,3.23
2023-04-24T01:44:06.082Z,3.70
2023-04-24T01:46:35.745Z,3.60
2023-04-24T01:49:04.205Z,3.13
2023-04-24T01:51:32.679Z,3.50
2023-04-24T01:54:00.594Z,3.13
2023-04-24T01:56:31.612Z,2.70
2023-04-24T01:59:01.986Z,2.50
2023-04-24T02:01:29.884Z,2.70
2023-04-24T02:03:57.862Z,2.47
2023-04-24T02:06:25.829Z,2.00
2023-04-24T02:08:53.778Z,2.03
2023-04-24T02:11:21.683Z,2.10
2023-04-24T02:13:49.613Z,1.80
2023-04-24T02:16:19.031Z,1.80
2023-04-24T02:18:47.116Z,1.90
2023-04-24T02:21:15.053Z,1.70
2023-04-24T02:23:42.977Z,2.13
2023-04-24T02:26:11.356Z,1.60
2023-04-24T02:28:39.281Z,1.67
2023-04-24T02:31:07.420Z,1.40
2023-04-24T02:33:36.786Z,1.80
2023-04-24T02:36:05.031Z,1.60
2023-04-24T02:38:32.927Z,1.43
2023-04-24T02:41:01.788Z,1.50
2023-04-24T02:43:29.703Z,1.40
2023-04-24T02:45:57.679Z,1.33
2023-04-24T02:48:25.763Z,1.60
2023-04-24T02:50:55.156Z,1.40
2023-04-24T02:53:23.809Z,1.30
2023-04-24T02:55:51.729Z,1.87
2023-04-24T02:58:21.084Z,1.50
2023-04-24T03:00:49.156Z,1.50
2023-04-24T03:03:17.251Z,1.80
2023-04-24T03:05:45.670Z,1.50
2023-04-24T03:08:15.553Z,1.80
2023-04-24T03:10:43.485Z,1.70
2023-04-24T03:13:11.372Z,1.50
2023-04-24T03:15:39.281Z,1.87
2023-04-24T03:18:07.303Z,1.90
2023-04-24T03:20:35.260Z,1.70
2023-04-24T03:23:03.302Z,1.80
2023-04-24T03:25:32.556Z,2.10
2023-04-24T03:28:00.520Z,1.63
2023-04-24T03:30:28.437Z,1.43
2023-04-24T03:32:56.722Z,1.63
2023-04-24T03:35:25.037Z,1.77
2023-04-24T03:37:52.982Z,1.67
2023-04-24T03:40:20.949Z,1.50
2023-04-24T03:42:50.256Z,1.50
2023-04-24T03:45:18.163Z,1.60
2023-04-24T03:47:46.132Z,1.93
2023-04-24T03:50:14.138Z,1.90
2023-04-24T03:52:42.033Z,2.00
2023-04-24T03:55:13.995Z,1.70
2023-04-24T03:57:42.335Z,1.93
2023-04-24T04:00:13.332Z,1.73
2023-04-24T04:02:41.366Z,1.70
2023-04-24T04:05:10.489Z,1.30
2023-04-24T04:07:38.471Z,1.57
2023-04-24T04:10:08.044Z,1.70
2023-04-24T04:12:35.932Z,1.63
2023-04-24T04:15:05.707Z,1.63
2023-04-24T04:17:35.111Z,1.63
2023-04-24T04:20:06.704Z,1.50
2023-04-24T04:22:34.625Z,1.50
2023-04-24T04:25:02.538Z,1.70
2023-04-24T04:27:33.128Z,1.80
2023-04-24T04:30:02.471Z,1.50
2023-04-24T04:32:30.400Z,1.53
2023-04-24T04:34:59.753Z,1.30
2023-04-24T04:37:27.657Z,1.40
2023-04-24T04:39:55.697Z,1.70
2023-04-24T04:42:24.738Z,1.70
2023-04-24T04:44:52.700Z,1.50
2023-04-24T04:47:20.996Z,1.60
2023-04-24T04:49:49.170Z,1.40
2023-04-24T04:52:18.846Z,1.60
2023-04-24T04:54:47.304Z,1.10
2023-04-24T04:57:15.280Z,1.20
2023-04-24T04:59:43.449Z,1.33
2023-04-24T05:02:11.715Z,1.40
2023-04-24T05:04:39.817Z,1.23
2023-04-24T05:07:07.916Z,1.30
2023-04-24T05:09:37.209Z,1.80
2023-04-24T05:12:05.555Z,1.10
2023-04-24T05:14:33.482Z,1.10
2023-04-24T05:17:02.001Z,1.30
2023-04-24T05:19:29.957Z,1.20
2023-04-24T05:21:57.894Z,1.30
2023-04-24T05:24:25.820Z,1.10
2023-04-24T05:26:55.107Z,1.20
2023-04-24T05:29:23.006Z,1.20
2023-04-24T05:31:51.092Z,1.00
2023-04-24T05:34:19.200Z,1.10
2023-04-24T05:36:47.303Z,1.30
2023-04-24T05:39:15.995Z,1.17
2023-04-24T05:41:43.924Z,1.40
2023-04-24T05:44:13.214Z,1.30
2023-04-24T05:46:41.206Z,1.20
2023-04-24T05:49:09.136Z,1.20
2023-04-24T05:51:37.029Z,1.50
2023-04-24T05:54:05.095Z,1.40
2023-04-24T05:56:33.278Z,1.50
2023-04-24T05:59:01.276Z,1.50
2023-04-24T06:01:30.730Z,1.50
2023-04-24T06:03:58.699Z,1.23
2023-04-24T06:06:28.234Z,1.50
2023-04-24T06:08:56.666Z,1.83
2023-04-24T06:11:25.906Z,1.67
2023-04-24T06:13:54.170Z,2.37
2023-04-24T06:16:22.213Z,1.83
2023-04-24T06:18:51.544Z,1.80
2023-04-24T06:21:19.579Z,1.40
2023-04-24T06:23:50.158Z,1.83
2023-04-24T06:26:18.363Z,1.70
2023-04-24T06:28:46.243Z,2.27
2023-04-24T06:31:14.125Z,2.10
2023-04-24T06:33:45.169Z,2.07
2023-04-24T06:36:14.510Z,2.40
2023-04-24T06:38:42.451Z,1.80
2023-04-24T06:41:11.707Z,2.60
2023-04-24T06:43:39.616Z,2.83
2023-04-24T06:46:07.623Z,1.80
2023-04-24T06:48:35.584Z,1.93
2023-04-24T06:51:03.523Z,2.20
2023-04-24T06:53:32.862Z,2.70
2023-04-24T06:56:00.833Z,2.80
2023-04-24T06:58:28.755Z,2.63
2023-04-24T07:00:56.670Z,2.87
2023-04-24T07:03:24.782Z,2.67
2023-04-24T07:05:54.346Z,2.63
2023-04-24T07:08:23.120Z,2.80
2023-04-24T07:10:52.884Z,2.60
2023-04-24T07:13:20.997Z,3.03
2023-04-24T07:15:51.464Z,3.20
2023-04-24T07:18:19.684Z,3.10
2023-04-24T07:20:47.735Z,2.77
2023-04-24T07:23:15.707Z,2.77
2023-04-24T07:25:43.791Z,3.10
2023-04-24T07:28:13.163Z,2.57
2023-04-24T07:30:41.113Z,2.57
2023-04-24T07:33:09.119Z,2.83
2023-04-24T07:35:37.152Z,3.33
2023-04-24T07:38:05.076Z,3.27
2023-04-24T07:40:33.022Z,3.03
2023-04-24T07:43:01.412Z,3.70
2023-04-24T07:45:32.177Z,3.17
2023-04-24T07:48:00.165Z,3.10
2023-04-24T07:50:28.185Z,2.90
2023-04-24T07:52:56.059Z,2.60
2023-04-24T07:55:26.462Z,2.93
2023-04-24T07:57:56.059Z,3.07
2023-04-24T08:00:24.031Z,3.20
2023-04-24T08:02:53.446Z,3.60
2023-04-24T08:05:21.706Z,9.17
2023-04-24T08:07:51.429Z,3.33
2023-04-24T08:10:19.398Z,4.13
2023-04-24T08:12:47.337Z,6.03
2023-04-24T08:15:15.289Z,3.43
2023-04-24T08:17:43.476Z,6.37
2023-04-24T08:20:14.729Z,4.60
2023-04-24T08:22:42.835Z,4.50
2023-04-24T08:25:11.213Z,4.43
2023-04-24T08:27:39.971Z,3.93
2023-04-24T08:30:09.139Z,4.90
2023-04-24T08:32:37.122Z,3.70
2023-04-24T08:35:05.675Z,4.17
2023-04-24T08:37:34.995Z,4.60
2023-04-24T08:40:03.384Z,4.73
2023-04-24T08:42:34.310Z,4.03
2023-04-24T08:45:03.528Z,4.03
2023-04-24T08:47:32.335Z,4.00
2023-04-24T08:50:03.840Z,3.87
2023-04-24T08:52:32.341Z,3.67
2023-04-24T08:55:02.229Z,4.17
2023-04-24T08:57:30.776Z,3.90
2023-04-24T08:59:58.943Z,3.43
2023-04-24T09:02:27.610Z,3.40
2023-04-24T09:04:55.833Z,3.83
2023-04-24T09:07:24.737Z,3.30
2023-04-24T09:09:53.107Z,3.77
2023-04-24T09:12:23.148Z,3.80
2023-04-24T09:14:51.964Z,4.10
2023-04-24T09:17:19.978Z,4.47
2023-04-24T09:19:47.876Z,4.03
2023-04-24T09:22:16.504Z,4.43
2023-04-24T09:24:44.476Z,4.43
2023-04-24T09:27:14.177Z,4.00
2023-04-24T09:29:55.817Z,4.40
2023-04-24T09:32:26.799Z,4.20
2023-04-24T09:35:08.508Z,4.20
2023-04-24T09:37:38.206Z,4.73
2023-04-24T09:40:17.042Z,4.13
2023-04-24T09:42:48.825Z,4.17
2023-04-24T09:45:18.836Z,4.70
2023-04-24T09:47:46.810Z,4.67
2023-04-24T09:50:16.444Z,4.63
2023-04-24T09:52:46.390Z,4.83
2023-04-24T09:55:21.269Z,5.00
2023-04-24T09:57:51.351Z,5.13
2023-04-24T10:00:27.182Z,5.50
2023-04-24T10:02:59.778Z,4.67
2023-04-24T10:05:30.585Z,4.20
2023-04-24T10:07:59.758Z,5.53
2023-04-24T10:10:28.224Z,5.40
2023-04-24T10:12:57.104Z,5.73
2023-04-24T10:15:26.592Z,5.57
2023-04-24T10:17:54.782Z,5.80
2023-04-24T10:20:23.665Z,5.47
2023-04-24T10:22:53.217Z,5.47
2023-04-24T10:25:22.863Z,6.00
2023-04-24T10:27:51.848Z,5.77
2023-04-24T10:30:20.631Z,6.03
2023-04-24T10:32:50.016Z,6.77
2023-04-24T10:35:20.629Z,6.20
2023-04-24T10:37:51.369Z,6.00
2023-04-24T10:40:20.680Z,6.50
2023-04-24T10:42:57.475Z,6.10
2023-04-24T10:45:26.997Z,6.20
2023-04-24T10:48:05.830Z,6.67
2023-04-24T10:50:45.816Z,6.93
2023-04-24T10:53:19.122Z,6.87
2023-04-24T10:55:51.388Z,6.73
2023-04-24T10:58:24.396Z,6.37
2023-04-24T11:00:59.259Z,6.13
2023-04-24T11:03:31.211Z,6.43
2023-04-24T11:06:01.678Z,6.27
2023-04-24T11:08:39.802Z,6.70
2023-04-24T11:11:12.254Z,6.10
2023-04-24T11:14:07.386Z,6.40
2023-04-24T11:16:37.150Z,5.73
2023-04-24T11:19:09.454Z,6.13
2023-04-24T11:21:45.005Z,5.37
2023-04-24T11:24:33.852Z,6.20
2023-04-24T11:27:08.917Z,5.67
2023-04-24T11:29:44.997Z,5.80
2023-04-24T11:32:21.397Z,5.43
2023-04-24T11:34:54.429Z,5.23
2023-04-24T11:37:22.938Z,5.23
2023-04-24T11:39:53.788Z,5.10
2023-04-24T11:42:22.724Z,4.73
2023-04-24T11:44:51.669Z,5.17
2023-04-24T11:47:20.247Z,5.20
2023-04-24T11:49:48.304Z,4.40
2023-04-24T11:52:19.414Z,4.90
2023-04-24T11:54:50.954Z,4.47
2023-04-24T11:57:20.469Z,4.37
2023-04-24T11:59:50.429Z,4.73
2023-04-24T12:02:25.549Z,4.90
2023-04-24T12:04:54.598Z,4.10
2023-04-24T12:07:25.433Z,3.17
2023-04-24T12:09:59.401Z,4.23
2023-04-24T12:12:28.710Z,3.80
2023-04-24T12:14:57.788Z,4.17
2023-04-24T12:17:29.163Z,3.63
2023-04-24T12:20:01.194Z,3.47
2023-04-24T12:22:30.996Z,3.50
2023-04-24T12:25:02.804Z,3.73
2023-04-24T12:27:35.125Z,3.87
2023-04-24T12:30:05.453Z,3.57
2023-04-24T12:32:33.835Z,3.77
2023-04-24T12:35:01.815Z,3.87
2023-04-24T12:37:37.413Z,3.80
2023-04-24T12:40:08.151Z,3.80
2023-04-24T12:42:37.011Z,3.70
2023-04-24T12:45:06.583Z,4.07
2023-04-24T12:47:35.056Z,4.10
2023-04-24T12:50:03.598Z,4.57
2023-04-24T12:52:32.929Z,4.00
2023-04-24T12:55:02.328Z,3.60
2023-04-24T12:57:31.442Z,4.77
2023-04-24T13:00:00.492Z,4.30
2023-04-24T13:02:31.556Z,4.40
2023-04-24T13:04:59.991Z,4.67
2023-04-24T13:07:28.164Z,4.50
2023-04-24T13:09:58.434Z,4.70
2023-04-24T13:12:27.579Z,4.10
2023-04-24T13:14:55.666Z,3.30
2023-04-24T13:17:24.140Z,4.37
2023-04-24T13:19:53.060Z,4.37
2023-04-24T13:22:20.997Z,3.87
2023-04-24T13:24:50.405Z,4.97
2023-04-24T13:27:20.021Z,4.60
2023-04-24T13:29:48.053Z,3.17
2023-04-24T13:32:16.137Z,4.43
2023-04-24T13:34:44.254Z,4.70
2023-04-24T13:37:12.241Z,4.20
2023-04-24T13:39:40.194Z,4.37
2023-04-24T13:42:08.211Z,4.70
2023-04-24T13:44:37.947Z,4.67
2023-04-24T13:47:06.754Z,3.53
2023-04-24T13:49:34.649Z,4.40
2023-04-24T13:52:02.592Z,3.80
2023-04-24T13:54:30.655Z,4.30
2023-04-24T13:57:00.245Z,4.23
2023-04-24T13:59:28.221Z,4.67
2023-04-24T14:01:57.801Z,3.67
2023-04-24T14:04:26.721Z,4.47
2023-04-24T14:06:54.888Z,4.00
2023-04-24T14:09:22.787Z,4.13
2023-04-24T14:11:50.683Z,4.80
2023-04-24T14:14:18.671Z,3.67
2023-04-24T14:16:46.581Z,4.00
2023-04-24T14:19:15.900Z,4.00
2023-04-24T14:21:43.800Z,4.30
2023-04-24T14:24:11.818Z,3.90
2023-04-24T14:26:39.828Z,4.07
2023-04-24T14:29:14.930Z,3.67
2023-04-24T14:31:43.584Z,4.70
2023-04-24T14:34:11.671Z,4.47
2023-04-24T14:36:41.558Z,3.20
2023-04-24T14:39:09.531Z,2.60
2023-04-24T14:41:38.262Z,2.37
2023-04-24T14:44:06.729Z,1.90
2023-04-24T14:46:34.957Z,1.90
2023-04-24T14:49:03.092Z,1.80
2023-04-24T14:51:31.577Z,1.70
2023-04-24T14:54:01.036Z,1.70
2023-04-24T14:56:29.221Z,1.70
2023-04-24T14:58:57.618Z,2.10
2023-04-24T15:01:26.415Z,2.03
2023-04-24T15:03:54.915Z,2.33
2023-04-24T15:06:23.279Z,3.50
2023-04-24T15:08:51.267Z,3.50
2023-04-24T15:11:21.260Z,3.60
2023-04-24T15:13:49.404Z,3.90
2023-04-24T15:16:17.608Z,3.17
2023-04-24T15:18:46.026Z,3.27
2023-04-24T15:21:14.253Z,3.93
2023-04-24T15:23:42.239Z,3.47
2023-04-24T15:26:10.166Z,4.30
2023-04-24T15:28:39.481Z,4.00
2023-04-24T15:31:07.419Z,4.00
2023-04-24T15:33:35.361Z,3.80
2023-04-24T15:36:03.397Z,4.63
2023-04-24T15:38:31.330Z,4.47
2023-04-24T15:40:59.310Z,3.47
2023-04-24T15:43:27.328Z,3.70
2023-04-24T15:45:56.629Z,3.77
2023-04-24T15:48:24.641Z,3.97
2023-04-24T15:50:52.529Z,4.00
2023-04-24T15:53:22.435Z,3.70
2023-04-24T15:55:51.483Z,3.60
2023-04-24T15:58:20.366Z,3.53
2023-04-24T16:00:48.456Z,3.43
2023-04-24T16:03:17.969Z,3.10
2023-04-24T16:05:45.946Z,3.13
2023-04-24T16:08:15.423Z,2.60
2023-04-24T16:10:44.241Z,2.70
2023-04-24T16:13:12.240Z,2.40
2023-04-24T16:15:41.147Z,2.70
2023-04-24T16:18:09.239Z,2.30
2023-04-24T16:20:38.670Z,2.23
2023-04-24T16:23:06.570Z,2.23
2023-04-24T16:25:34.490Z,2.07
2023-04-24T16:28:02.420Z,2.10
2023-04-24T16:30:30.512Z,2.20
2023-04-24T16:32:58.528Z,2.03
2023-04-24T16:35:26.468Z,2.20
2023-04-24T16:37:55.797Z,2.20
2023-04-24T16:40:23.697Z,2.20
2023-04-24T16:42:52.793Z,2.17
2023-04-24T16:45:20.858Z,2.03
2023-04-24T16:47:48.886Z,2.60
2023-04-24T16:50:16.854Z,2.20
2023-04-24T16:52:44.819Z,2.40
2023-04-24T16:55:14.079Z,2.27
2023-04-24T16:57:41.994Z,2.30
2023-04-24T17:00:11.213Z,2.10
2023-04-24T17:02:39.274Z,2.17
2023-04-24T17:05:08.121Z,2.53
2023-04-24T17:07:36.242Z,2.40
2023-04-24T17:10:04.783Z,2.20
2023-04-24T17:12:34.168Z,2.30
2023-04-24T17:15:02.139Z,2.00
2023-04-24T17:17:30.094Z,2.70
2023-04-24T17:19:59.870Z,2.37
2023-04-24T17:22:29.486Z,2.37
2023-04-24T17:24:57.390Z,3.13
2023-04-24T17:27:25.322Z,2.57
2023-04-24T17:29:54.698Z,2.37
2023-04-24T17:32:22.686Z,2.33
2023-04-24T17:34:50.599Z,2.30
2023-04-24T17:37:20.331Z,2.30
2023-04-24T17:39:48.239Z,2.37
2023-04-24T17:42:16.190Z,2.63
2023-04-24T17:44:44.111Z,1.90
2023-04-24T17:47:13.627Z,2.07
2023-04-24T17:49:41.592Z,1.87
2023-04-24T17:52:11.726Z,1.60
2023-04-24T17:54:39.688Z,1.80
2023-04-24T17:57:07.595Z,1.60
2023-04-24T17:59:35.541Z,1.90
2023-04-24T18:02:03.593Z,1.50
2023-04-24T18:04:33.320Z,1.63
2023-04-24T18:07:01.318Z,1.93
2023-04-24T18:09:29.562Z,1.60
2023-04-24T18:11:57.939Z,1.63
2023-04-24T18:14:28.408Z,1.30
2023-04-24T18:16:58.181Z,1.33
2023-04-24T18:19:26.228Z,1.43
2023-04-24T18:21:55.474Z,1.10
2023-04-24T18:24:24.310Z,1.53
2023-04-24T18:26:52.274Z,1.17
2023-04-24T18:29:21.178Z,1.63
2023-04-24T18:31:49.585Z,1.40
2023-04-24T18:34:17.650Z,1.77
2023-04-24T18:36:45.623Z,1.10
2023-04-24T18:39:15.091Z,1.40
2023-04-24T18:41:43.048Z,1.00
2023-04-24T18:44:11.699Z,1.30
2023-04-24T18:46:41.497Z,1.30
2023-04-24T18:49:09.557Z,1.23
2023-04-24T18:51:52.470Z,1.20
2023-04-24T18:54:22.858Z,1.13
2023-04-24T18:56:51.653Z,1.20
2023-04-24T18:59:19.909Z,1.00
2023-04-24T19:01:49.837Z,1.00
2023-04-24T19:04:20.810Z,1.17
2023-04-24T19:06:48.907Z,1.43
2023-04-24T19:09:16.870Z,1.53
2023-04-24T19:11:46.251Z,1.70
2023-04-24T19:14:14.489Z,1.73
2023-04-24T19:16:42.524Z,1.53
2023-04-24T19:19:13.381Z,1.30
2023-04-24T19:21:41.399Z,1.70
2023-04-24T19:24:10.829Z,1.40
2023-04-24T19:26:38.781Z,1.57
2023-04-24T19:29:08.131Z,1.70
2023-04-24T19:31:36.037Z,1.47
2023-04-24T19:34:03.966Z,1.70
2023-04-24T19:36:32.404Z,1.77
2023-04-24T19:39:28.183Z,1.30
2023-04-24T19:41:57.163Z,1.20
2023-04-24T19:44:26.496Z,2.03
2023-04-24T19:46:54.581Z,1.77
2023-04-24T19:49:22.615Z,2.17
2023-04-24T19:51:50.550Z,2.03
2023-04-24T19:54:20.209Z,1.53
2023-04-24T19:56:48.279Z,1.60
2023-04-24T19:59:16.208Z,1.90
2023-04-24T20:01:45.703Z,1.50
2023-04-24T20:04:13.891Z,1.90
2023-04-24T20:06:42.018Z,1.53
2023-04-24T20:09:10.427Z,1.70
2023-04-24T20:11:38.316Z,1.70
2023-04-24T20:14:06.362Z,1.80
2023-04-24T20:16:34.331Z,1.63
2023-04-24T20:19:03.893Z,1.60
2023-04-24T20:21:32.004Z,1.43
2023-04-24T20:23:59.944Z,1.80
2023-04-24T20:26:27.879Z,1.60
2023-04-24T20:28:55.812Z,1.57
2023-04-24T20:31:23.813Z,1.83
2023-04-24T20:33:51.817Z,1.77
2023-04-24T20:36:21.107Z,1.70
2023-04-24T20:38:51.800Z,1.67
2023-04-24T20:41:19.735Z,2.17
2023-04-24T20:43:47.760Z,1.77
2023-04-24T20:46:15.846Z,1.97
2023-04-24T20:48:43.777Z,1.80
2023-04-24T20:51:11.810Z,1.57
2023-04-24T20:53:41.081Z,1.80
2023-04-24T20:56:11.432Z,1.70
2023-04-24T20:58:39.874Z,1.13
2023-04-24T21:01:08.015Z,1.60
2023-04-24T21:03:36.055Z,1.67
2023-04-24T21:06:04.218Z,2.27
2023-04-24T21:08:32.112Z,1.83
2023-04-24T21:11:01.453Z,1.60
2023-04-24T21:13:29.410Z,1.67
2023-04-24T21:15:57.465Z,2.00
2023-04-24T21:18:26.213Z,1.60
2023-04-24T21:20:54.516Z,1.70
2023-04-24T21:23:22.446Z,1.73
2023-04-24T21:25:50.345Z,1.70
2023-04-24T21:28:20.066Z,1.60
2023-04-24T21:30:48.074Z,1.77
2023-04-24T21:33:15.977Z,1.80
2023-04-24T21:35:44.017Z,1.70
2023-04-24T21:38:11.906Z,1.83
2023-04-24T21:40:39.871Z,1.63
2023-04-24T21:43:07.816Z,2.27
2023-04-24T21:45:37.070Z,2.00
2023-04-24T21:48:05.284Z,2.10
2023-04-24T21:50:33.248Z,1.70
2023-04-24T21:53:01.152Z,1.37
2023-04-24T21:55:29.133Z,1.73
2023-04-24T21:57:57.293Z,1.60
2023-04-24T22:00:25.514Z,2.20
2023-04-24T22:02:54.953Z,1.70
2023-04-24T22:05:23.005Z,1.60
2023-04-24T22:07:51.045Z,1.83
2023-04-24T22:10:19.224Z,1.97
2023-04-24T22:12:47.134Z,1.77
2023-04-24T22:15:15.131Z,1.80
2023-04-24T22:17:43.646Z,2.03
2023-04-24T22:20:13.904Z,1.90
2023-04-24T22:22:41.828Z,2.00
2023-04-24T22:25:10.522Z,2.27
2023-04-24T22:27:38.457Z,2.00
2023-04-24T22:30:09.133Z,2.00
2023-04-24T22:32:37.424Z,2.17
2023-04-24T22:35:05.847Z,1.93
2023-04-24T22:37:35.170Z,2.00
2023-04-24T22:40:03.650Z,1.93
2023-04-24T22:42:31.616Z,2.47
2023-04-24T22:44:59.561Z,3.97
2023-04-24T22:47:27.598Z,1.83
2023-04-24T22:49:57.717Z,2.07
2023-04-24T22:52:26.259Z,1.50
2023-04-24T22:54:55.543Z,2.10
2023-04-24T22:57:23.448Z,2.10
2023-04-24T22:59:51.373Z,1.70
2023-04-24T23:02:19.406Z,1.80
2023-04-24T23:04:48.395Z,2.13
2023-04-24T23:07:16.788Z,2.27
2023-04-24T23:09:44.715Z,1.87
2023-04-24T23:12:13.978Z,2.00
2023-04-24T23:14:41.866Z,1.70
2023-04-24T23:17:09.793Z,2.40
2023-04-24T23:19:37.701Z,1.87
2023-04-24T23:22:05.631Z,1.63
2023-04-24T23:24:33.565Z,1.70
2023-04-24T23:27:01.788Z,1.97
2023-04-24T23:29:31.070Z,1.73
2023-04-24T23:31:59.011Z,2.00
2023-04-24T23:34:26.930Z,1.50
2023-04-24T23:36:54.890Z,1.90
2023-04-24T23:39:22.936Z,1.90
2023-04-24T23:41:53.602Z,1.70
2023-04-24T23:44:21.536Z,1.80
2023-04-24T23:46:50.789Z,1.83
2023-04-24T23:49:18.690Z,1.67
2023-04-24T23:51:46.584Z,1.80
2023-04-24T23:54:14.505Z,1.77
2023-04-24T23:56:42.608Z,1.80
2023-04-24T23:59:10.500Z,1.80
